Date,TemperatureHighF,TemperatureAvgF,TemperatureLowF,DewpointHighF,DewpointAvgF,DewpointLowF,HumidityHigh,HumidityAvg,HumidityLow,PressureMaxIn,PressureMinIn,WindSpeedMaxMPH,WindSpeedAvgMPH,GustSpeedMaxMPH,PrecipitationSumIn
2013-7-8,83,79,76,71,69,67,79,73,61,30.02,29.99,4,0,5,0.00
2013-7-9,83,76,69,71,69,64,94,77,63,30.00,29.77,14,2,22,0.30
2013-7-10,81,72,62,64,58,54,82,63,42,30.11,29.98,12,1,12,0.00
2013-7-11,82,73,61,63,59,57,92,65,43,30.15,30.02,12,5,12,0.00
2013-7-12,84,78,71,66,62,58,69,60,49,30.05,29.94,21,12,21,0.00
2013-7-13,96,78,67,94,70,54,95,78,60,30.13,29.95,23,9,23,3.49
2013-7-14,75,70,66,64,61,22,82,72,60,30.22,30.09,227,6,227,0.03
2013-7-15,84,74,66,71,64,59,82,71,55,30.30,30.21,12,4,12,0.00
2013-7-16,88,82,76,74,72,69,85,72,55,30.27,30.20,10,5,12,0.00
2013-7-17,90,82,77,77,72,68,87,71,54,30.30,30.15,55,3,55,0.04
2013-7-18,89,84,78,74,72,70,79,67,54,30.15,29.81,13,7,16,0.00
2013-7-19,84,80,70,72,65,59,79,62,45,29.96,29.77,12,4,12,0.02
2013-7-20,74,71,70,74,58,56,100,62,59,30.01,29.96,4,2,4,0.02
2013-7-21,79,71,60,69,61,50,91,73,60,30.00,29.85,28,4,28,0.08
2013-7-22,86,75,67,72,65,55,89,73,48,29.92,29.73,14,5,14,0.00
2013-7-23,78,68,61,57,55,52,81,63,43,30.07,29.91,8,2,8,0.00
2013-7-24,75,68,63,62,57,52,75,66,50,30.12,30.02,13,4,13,0.00
2013-7-25,80,73,66,67,62,57,83,68,50,30.04,29.97,8,4,8,0.01
2013-7-26,72,64,57,63,55,48,82,71,55,30.13,29.94,13,4,13,0.02
2013-7-27,63,58,51,50,47,44,86,68,52,30.13,29.97,13,3,13,0.01
2013-7-28,74,61,50,55,49,44,83,66,48,30.11,29.99,8,2,8,0.00
2013-7-29,74,66,56,59,55,52,89,69,51,30.18,30.10,10,4,10,0.00
2013-7-30,70,66,63,64,61,57,90,83,67,30.15,30.10,7,1,7,0.15
2013-7-31,77,69,63,65,60,53,93,76,48,30.14,30.04,8,2,9,0.00
2013-8-1,78,68,58,64,56,50,81,66,46,30.08,29.91,7,1,7,0.00
2013-8-2,77,68,60,60,55,52,81,65,43,30.08,29.89,6,1,6,0.00
2013-8-3,80,67,56,56,53,50,87,63,36,30.23,30.08,6,1,7,0.00
2013-8-4,71,65,56,58,54,50,83,68,52,30.26,30.03,9,2,9,0.00
2013-8-5,77,68,62,76,62,-1,100,81,65,30.06,29.84,16,3,16,0.59
2013-8-6,82,68,59,67,61,-24,100,79,56,29.89,29.74,12,3,12,0.36
2013-8-7,77,66,60,59,56,50,93,71,41,30.08,29.82,9,2,9,0.01
2013-8-8,72,65,58,62,58,54,90,78,61,30.09,30.02,7,2,7,0.00
2013-8-9,76,67,60,60,55,52,91,67,43,30.17,30.04,7,2,7,0.01
2013-8-10,73,67,61,58,54,51,81,64,47,30.23,30.12,7,1,7,0.00
2013-8-11,80,70,65,64,60,55,85,72,56,30.12,30.04,7,2,7,0.00
2013-8-12,80,70,61,65,57,53,87,65,40,30.09,30.02,9,2,9,0.00
2013-8-13,76,66,58,56,52,46,86,62,36,30.24,30.09,7,2,7,0.00
2013-8-14,75,66,56,57,53,49,91,66,41,30.23,30.13,7,2,7,0.00
2013-8-15,75,67,60,60,56,52,85,68,52,30.17,30.12,8,3,8,0.00
2013-8-16,76,69,61,60,57,53,86,67,46,30.24,30.16,9,2,9,0.00
2013-8-17,78,70,63,61,58,55,81,65,49,30.23,30.12,14,6,14,0.00
2013-8-18,78,72,63,62,58,55,79,64,48,30.16,30.03,20,7,20,0.00
2013-8-19,82,74,67,70,64,58,79,71,60,30.05,29.92,12,7,12,0.00
2013-8-20,84,78,72,73,69,65,83,75,66,29.95,29.88,14,6,14,0.00
2013-8-21,85,78,73,76,70,60,87,77,60,30.03,29.86,10,4,10,0.00
2013-8-22,87,76,67,61,55,49,68,51,31,30.15,30.02,7,2,7,0.00
2013-8-23,81,73,64,68,60,50,78,64,54,30.17,30.06,12,5,12,0.00
2013-8-24,85,78,72,72,69,65,82,73,60,30.09,29.96,23,13,25,0.00
2013-8-25,90,83,78,75,72,70,80,70,57,30.03,29.97,23,8,23,0.00
2013-8-26,90,83,77,77,74,72,86,74,61,30.01,29.86,22,6,22,0.00
2013-8-27,91,82,77,79,74,71,84,77,67,29.94,29.82,7,3,7,0.00
2013-8-28,88,79,72,74,71,68,91,77,56,30.06,29.94,9,1,9,0.00
2013-8-29,89,82,76,75,72,68,90,74,52,30.02,29.86,13,5,13,0.00
2013-8-30,85,77,71,72,67,63,86,71,54,29.98,29.85,9,2,9,0.00
2013-8-31,84,74,67,70,65,61,100,75,58,29.92,29.74,12,2,12,0.16
2013-9-1,72,68,61,66,60,52,85,75,64,30.02,29.76,13,3,13,0.00
2013-9-2,65,59,54,54,52,48,85,76,63,30.12,30.01,5,2,6,0.00
2013-9-3,75,64,56,74,57,52,100,79,56,30.12,30.04,7,2,7,0.00
2013-9-4,86,73,64,69,63,58,100,70,48,30.17,30.04,6,1,6,0.00
2013-9-5,81,72,64,78,60,53,100,66,56,30.25,30.11,10,3,10,0.00
2013-9-6,86,78,71,71,68,64,89,72,51,30.12,29.89,15,6,15,0.00
2013-9-7,94,80,70,71,67,61,89,66,43,30.04,29.88,8,2,8,0.00
2013-9-8,75,70,66,65,61,56,81,72,65,30.07,29.90,15,3,15,0.00
2013-9-9,89,77,70,77,68,64,100,76,51,29.90,29.67,13,5,13,0.00
2013-9-10,80,73,67,68,64,60,87,75,55,30.01,29.79,8,2,8,0.01
2013-9-11,85,74,65,63,58,48,86,61,33,30.09,30.01,13,2,13,0.00
2013-9-12,74,65,56,55,49,44,81,58,36,30.26,30.09,12,2,12,0.00
2013-9-13,70,60,51,62,46,-49,100,62,42,30.30,30.10,12,2,12,0.00
2013-9-14,70,61,54,55,50,46,90,70,50,30.11,29.91,12,6,12,0.29
2013-9-15,67,59,53,56,53,44,92,81,63,30.34,29.89,10,3,10,0.06
2013-9-16,64,55,46,48,44,40,82,65,48,30.42,30.27,12,4,13,0.00
2013-9-17,64,58,52,58,51,45,91,77,66,30.27,29.96,18,10,20,0.00
2013-9-18,75,68,60,69,64,58,94,88,79,29.96,29.73,16,7,16,0.01
2013-9-19,75,70,63,68,65,53,89,82,70,29.86,29.68,16,3,16,0.03
2013-9-20,65,58,51,55,51,46,88,77,58,29.96,29.81,10,3,10,0.01
2013-9-21,65,54,47,49,46,43,88,75,54,30.01,29.93,5,1,7,0.00
2013-9-22,72,61,50,58,51,44,82,70,56,29.97,29.88,15,7,15,0.00
2013-9-23,71,64,57,55,52,49,79,67,51,29.96,29.89,20,11,20,0.00
2013-9-24,73,63,54,56,52,48,81,68,50,29.98,29.93,15,4,15,0.00
2013-9-25,72,63,55,55,52,50,86,69,51,29.99,29.88,13,4,13,0.00
2013-9-26,78,68,58,61,56,50,76,67,55,29.93,29.84,21,10,21,0.00
2013-9-27,81,73,68,64,61,60,77,67,52,29.94,29.81,25,12,25,0.01
2013-9-28,73,62,52,62,54,44,89,75,65,29.95,29.65,21,8,21,0.17
2013-9-29,74,61,50,52,47,42,77,61,37,29.96,29.79,16,8,16,0.00
2013-9-30,77,67,60,56,51,47,67,56,43,29.80,29.62,17,10,18,0.01
2013-10-1,76,66,53,53,45,35,67,48,25,30.01,29.61,16,4,16,0.00
2013-10-2,73,60,48,55,45,38,90,61,30,30.04,29.85,15,4,15,0.76
2013-10-3,58,57,54,56,54,52,92,90,88,29.94,29.84,7,2,7,0.04
2013-10-4,58,56,54,55,53,51,92,88,83,29.98,29.80,12,4,12,0.23
2013-10-5,60,54,44,57,48,41,92,83,64,29.86,29.75,10,3,10,0.04
2013-10-6,53,48,43,51,45,41,93,90,85,29.86,29.69,7,1,13,0.05
2013-10-7,67,54,44,49,43,40,91,70,40,29.99,29.82,5,2,5,0.01
2013-10-8,74,63,52,50,46,42,72,56,38,29.97,29.83,25,10,25,0.00
2013-10-9,72,64,58,54,50,48,71,60,48,30.05,29.93,15,8,15,0.00
2013-10-10,74,64,56,56,50,45,70,60,48,30.04,29.88,20,8,20,0.00
2013-10-11,72,65,58,60,54,50,83,68,55,29.88,29.64,32,13,32,0.05
2013-10-12,60,52,47,50,42,37,78,71,61,30.18,29.71,14,6,14,0.00
2013-10-13,59,48,39,41,37,34,84,67,41,30.44,30.19,6,2,6,0.00
2013-10-14,53,49,44,46,39,35,89,69,57,30.40,29.94,14,3,14,0.49
2013-10-15,54,50,45,51,47,43,93,91,87,29.94,29.67,17,6,17,0.75
2013-10-16,55,46,42,43,40,36,92,79,49,29.96,29.84,9,3,9,0.03
2013-10-17,57,47,42,44,39,35,90,75,54,29.88,29.78,10,3,10,0.08
2013-10-18,53,44,38,39,35,30,91,71,43,29.99,29.83,7,3,7,0.01
2013-10-19,46,41,35,38,34,28,86,78,69,29.83,29.69,9,4,9,0.01
2013-10-20,46,38,34,39,33,28,88,81,70,29.88,29.61,12,4,12,0.05
2013-10-21,40,35,31,31,23,20,77,62,51,29.96,29.88,12,3,12,0.00
2013-10-22,40,34,28,31,27,22,86,75,63,30.04,29.94,7,2,7,0.00
2013-10-23,38,35,32,28,24,19,79,66,51,30.11,29.98,9,2,9,0.00
2013-10-24,44,37,32,30,26,19,80,65,54,30.32,30.11,9,3,9,0.00
2013-10-25,57,44,30,42,34,26,85,69,54,30.31,29.79,17,6,17,0.11
2013-10-26,51,43,36,40,30,27,71,60,50,30.11,29.80,12,4,12,0.00
2013-10-27,59,43,34,37,31,28,77,63,42,30.13,29.83,12,5,12,0.00
2013-10-28,44,37,32,29,24,19,77,61,41,30.43,30.13,9,3,9,0.00
2013-10-29,41,37,32,36,28,23,88,71,65,30.41,30.08,7,2,7,0.06
2013-10-30,49,44,39,47,42,36,94,92,88,30.08,29.67,7,1,7,0.09
2013-10-31,48,42,40,47,40,36,94,91,85,29.67,29.42,7,2,7,0.04
2013-11-1,51,43,38,39,36,32,90,77,58,29.86,29.42,7,2,7,0.00
2013-11-2,50,40,33,36,32,29,86,73,52,30.09,29.86,9,2,9,0.00
2013-11-3,53,46,38,36,34,30,78,64,47,30.11,29.86,30,13,30,0.00
2013-11-4,49,45,38,43,37,32,88,74,60,30.15,29.81,25,8,25,0.03
2013-11-5,44,36,31,32,30,26,91,78,53,30.24,30.03,6,1,6,0.03
2013-11-6,38,33,29,31,27,23,91,78,62,30.17,30.02,9,3,9,0.25
2013-11-7,36,31,26,30,26,22,92,84,76,30.25,30.15,7,3,7,0.01
2013-11-8,46,37,26,38,29,23,90,73,54,30.19,29.60,22,7,22,0.00
2013-11-9,43,40,35,38,32,25,85,72,58,30.21,29.63,10,4,13,0.00
2013-11-10,39,37,34,31,29,25,77,71,65,30.33,30.09,12,4,12,0.00
2013-11-11,37,24,15,30,12,5,77,59,44,30.73,30.12,12,4,12,0.00
2013-11-12,28,20,12,16,9,4,73,63,48,30.78,30.43,12,5,12,0.00
2013-11-13,52,37,24,35,25,14,71,62,52,30.43,29.87,22,9,22,0.00
2013-11-14,54,41,35,41,33,30,81,74,58,29.87,29.76,7,3,7,0.00
2013-11-15,53,43,34,40,35,29,86,75,59,29.86,29.62,18,5,18,0.00
2013-11-16,48,44,41,48,42,35,97,89,72,29.62,29.25,14,6,14,0.08
2013-11-17,44,39,31,41,34,24,96,83,71,29.84,29.31,12,4,15,0.03
2013-11-18,36,30,25,25,20,18,79,68,55,30.25,29.84,15,3,15,0.00
2013-11-19,45,36,26,33,26,19,77,68,56,30.25,29.89,26,12,26,0.00
2013-11-20,46,41,38,34,32,28,86,69,54,30.04,29.86,28,10,28,0.00
2013-11-21,38,30,23,36,25,14,92,80,66,30.52,30.04,9,3,14,0.00
2013-11-22,35,22,11,15,10,-1,77,61,35,30.63,30.45,14,4,14,0.00
2013-11-23,20,12,6,3,0,-3,71,58,39,30.86,30.63,10,3,10,0.00
2013-11-24,31,21,9,16,9,-1,73,61,49,30.68,29.96,20,11,23,0.00
2013-11-25,38,33,28,27,22,16,77,65,55,30.08,29.88,20,5,20,0.00
2013-11-26,30,20,13,20,6,0,65,53,43,30.37,30.08,17,4,17,0.00
2013-11-27,24,17,8,11,6,1,77,63,52,30.37,30.05,14,5,14,0.00
2013-11-28,28,22,14,13,10,7,76,61,52,30.50,30.04,9,2,9,0.00
2013-11-29,31,24,13,20,14,7,82,69,56,30.50,30.12,18,7,18,0.00
2013-11-30,40,32,27,28,23,19,80,69,58,30.17,30.01,10,2,10,0.00
2013-12-1,32,26,18,26,21,14,87,80,72,30.20,29.90,7,1,7,0.00
2013-12-2,37,33,29,33,29,24,92,85,76,29.90,29.57,12,4,12,0.07
2013-12-3,35,34,32,34,32,29,94,92,89,29.78,29.57,7,1,7,0.07
2013-12-4,32,27,12,30,24,6,93,89,77,29.77,29.49,10,1,10,0.00
2013-12-5,12,5,-1,6,-3,-10,80,69,60,30.33,29.71,10,4,12,0.00
2013-12-6,3,-3,-8,-8,-12,-17,69,65,59,30.63,30.33,8,2,8,0.00
2013-12-7,0,-5,-11,-10,-15,-20,69,63,56,30.72,30.54,9,2,9,0.00
2013-12-8,11,4,-2,4,-4,-11,74,70,63,30.54,30.14,7,1,7,0.00
2013-12-10,12,7,3,4,-2,-8,69,64,58,30.28,30.06,9,4,9,0.00
2013-12-11,4,-4,-9,-8,-14,-19,65,60,51,30.57,30.27,12,4,12,0.00
2013-12-12,17,11,1,9,3,-8,78,69,62,30.29,30.13,9,2,9,0.00
2013-12-13,18,13,11,8,6,4,80,72,64,30.28,30.10,7,2,8,0.00
2013-12-14,15,9,-1,7,2,-10,79,73,65,30.27,30.10,6,1,8,0.00
2013-12-15,6,1,-2,-8,-10,-12,66,60,49,30.17,30.09,5,1,8,0.00
2013-12-16,24,10,2,18,3,-10,88,73,57,30.10,29.90,14,4,14,0.00
2013-12-17,33,23,7,26,14,0,79,68,55,30.12,29.86,14,3,14,0.00
2013-12-18,34,23,6,24,15,0,80,73,62,30.06,29.66,10,3,12,0.00
2013-12-19,27,17,15,20,10,6,81,72,63,30.09,29.81,8,2,8,0.00
2013-12-20,18,15,12,10,9,6,80,76,71,30.03,29.86,4,0,4,0.00
2013-12-21,21,18,15,13,11,8,78,74,68,30.01,29.85,4,0,5,0.00
2013-12-22,18,13,2,10,6,-6,78,73,68,30.25,29.95,7,2,7,0.00
2013-12-23,2,-3,-11,-6,-13,-21,70,61,53,30.52,30.24,7,2,7,0.00
2013-12-24,10,-1,-15,3,-11,-24,76,64,48,30.48,30.11,16,5,16,0.00
2013-12-25,29,17,9,23,10,3,86,74,59,30.16,30.06,8,2,8,0.00
2013-12-26,26,18,6,22,13,0,83,79,74,30.18,30.06,5,0,5,0.00
2013-12-27,38,27,7,30,22,1,87,80,69,30.16,29.92,12,3,12,0.04
2013-12-28,42,29,18,31,23,11,100,79,61,30.04,29.67,12,2,12,0.30
2013-12-29,18,-1,-14,11,-14,-25,73,55,41,30.36,30.04,55,3,55,0.00
2013-12-30,3,-5,-15,-5,-14,-25,73,66,58,30.29,30.17,7,1,7,0.00
2013-12-31,-1,-7,-12,-10,-16,-21,69,64,56,30.41,30.18,5,0,5,0.00
2014-1-1,1,-3,-8,-10,-14,-19,61,58,55,30.50,30.38,6,1,6,0.00
2014-1-2,4,-5,-12,-12,-18,-23,62,53,37,30.53,30.36,5,1,5,0.00